KMBL/MBL METAR and TAF weather

Enter ICAO airport designator
Station Type Date Time Source
KMBL METAR 2019/12/08 18:56 UTC NOAA

KMBL 081856Z AUTO 22010KT 8SM OVC017 05/02 A2978 RMK AO2 SLP088 T00500017


Station Type Date Time Source
KMBL Decoded METAR 2019/12/08 18:56 UTC NOAA

Manistee, Manistee County-Blacker Airport, MI, United States (KMBL) 44-16N 086-15W
Dec 08, 2019 - 01:56 PM EST / 2019.12.08 1856 UTC
Wind: from the SW (220 degrees) at 12 MPH (10 KT):0
Visibility: 8 mile(s):0
Sky conditions: overcast
Temperature: 41.0 F (5.0 C)
Dew Point: 35.1 F (1.7 C)
Relative Humidity: 79%
Pressure (altimeter): 29.78 in. Hg (1008 hPa)
ob: KMBL 081856Z AUTO 22010KT 8SM OVC017 05/02 A2978 RMK AO2 SLP088 T00500017
cycle: 19

Station Type Date Time Source
KMBL TAF 2019/12/08 18:45 UTC NOAA

TAF KMBL 081740Z 0818/0918 21013G21KT P6SM BKN017
FM082100 23008KT P6SM BKN015
FM090500 VRB03KT 2SM BR OVC003
FM091000 VRB03KT 2SM BR VCSH OVC002
FM091300 09005KT 2SM -RA BR OVC002

Example: see airport list